LFKBLFKC

Guest
Details From LFKB - Bastia Poretta
To LFKC - St Catherine
Flight Number -
Tags decoded
Created
Modified
Stats Distance 44 nm / 81 km
Max Altitude 0 ft / 0 m
Waypoints 4
Social Downloads 2
Likes 0
Share VATSIM

Download

Looking for another format? Having issues loading an existing format? Contact us
Advertisement - Login to hide

Notes

Requested: LFKB BTA15 KC408 LFKC

Route

LFKB BTA15 KC408 LFKC

ID Type Via Altitude Latitude Longitude Leg Dist Tot Dist Heading (true) Name
O LFKB APT - 0 ft / 0 m 42.55251˚ 9.48371˚ - 0 nm - Bastia Poretta
BTA15 FIX - 0 ft / 0 m 42.59861˚ 9.46538˚ 2 nm 2 nm 344° / 344° -
KC408 FIX - 0 ft / 0 m 42.70789˚ 8.79214˚ 30 nm 33 nm 283° / 282° -
O LFKC APT - 0 ft / 0 m 42.53076˚ 8.79292˚ 10 nm 43 nm 180° / 180° St Catherine

Altitude Profile

Advertisement - Login to hide

LFKB

Details ICAO LFKB (BIA)
Name Bastia Poretta
Region France
Timezone Europe/Paris (UTC+2.0)
Stats Elevation 25 ft / 8 m (AMSL)
Location 42.552508° 9.483709°
Runways 1
Magnetic Variation 2.534° E

METAR

Not found

TAF

TAF LFKB 280200Z 2803/2903 16006KT 9999 FEW015 SCT140 BKN200 TEMPO 2803/2806 BKN010 BKN100 BECMG 2807/2809 04010KT TEMPO 2809/2816 SHRA SCT030TCU PROB40 TEMPO 2812/2815 VRB10G20KT 3000 TSRA BR BKN020 SCT025CB BKN050 TEMPO 2823/2903 RA TX24/2812Z TN17/2803Z

Decode

Departure Runways

ID Width Length Bearing (true) Bearing (mag) Surface Threshold Offset Overrun Length
16 148 ft / 45 m 8,273 ft / 2,522 m 162.83° 160.30° Concrete 0 ft / 0 m 131 ft / 40 m
34 148 ft / 45 m 8,273 ft / 2,522 m 342.84° 340.31° Concrete 0 ft / 0 m 0 ft / 0 m

LFKC

Details ICAO LFKC (CLY)
Name St Catherine
Region France
Timezone Europe/Paris (UTC+2.0)
Stats Elevation 208 ft / 63 m (AMSL)
Location 42.530762° 8.792925°
Runways 1
Magnetic Variation 2.391° E

METAR

Not found

TAF

TAF LFKC 280200Z 2803/2903 18006KT 9999 FEW050 BKN140 BECMG 2806/2808 35010KT TEMPO 2810/2903 SHRA FEW035TCU PROB40 TEMPO 2811/2815 TSRA SCT030CB TX24/2812Z TN17/2804Z

Decode

Destination Runways

ID Width Length Bearing (true) Bearing (mag) Surface Threshold Offset Overrun Length
18 131 ft / 40 m 7,596 ft / 2,315 m 179.60° 177.21° Concrete 0 ft / 0 m 0 ft / 0 m
36 131 ft / 40 m 7,596 ft / 2,315 m 359.60° 357.21° Concrete 656 ft / 200 m 0 ft / 0 m

Approach Navaids

Runway Type Ident Frequency Range Bearing (true) Bearing (mag) Slope Elevation
18 Localiser CLI 109.50 MHz 18 nm / 33 km 179.62° 177.23° - 230 ft / 70 m (AMSL)
18 DME CLI 109.50 MHz 18 nm / 33 km - - - 230 ft / 70 m (AMSL)

Popular Alternatives